Time;durP1;ratioP1;P1;durP2;ratioP2;P2;SDS_P1;SDS_P2;PMS_P1;PMS_P2;Temp;Humidity;BMP_temperature;BMP_pressure;BME280_temperature;BME280_humidity;BME280_pressure;Samples;Min_cycle;Max_cycle;Signal;HPM_P1;HPM_P2
2022/12/21 00:00:54;;;;;;;1.00;1.00;;;10.80;99.90;;;;;;5004231;28;20202;-64
2022/12/21 00:03:21;;;;;;;0.90;0.90;;;10.80;99.90;;;;;;5004325;28;20313;-65
2022/12/21 00:05:47;;;;;;;1.00;1.00;;;10.80;99.90;;;;;;4999667;28;21032;-64
2022/12/21 00:08:15;;;;;;;1.00;1.00;;;10.80;99.90;;;;;;5004033;28;20202;-62
2022/12/21 00:10:42;;;;;;;0.90;0.90;;;10.80;99.90;;;;;;4995021;28;20218;-63
2022/12/21 00:13:09;;;;;;;0.90;0.90;;;10.80;99.90;;;;;;5004962;28;20214;-63
2022/12/21 00:15:36;;;;;;;0.97;0.97;;;10.80;99.90;;;;;;5000593;28;20203;-65
2022/12/21 00:18:03;;;;;;;1.00;1.00;;;10.90;99.90;;;;;;5002192;28;20305;-61
2022/12/21 00:20:30;;;;;;;0.80;0.80;;;10.90;99.90;;;;;;4997181;28;20198;-63
2022/12/21 00:22:56;;;;;;;0.80;0.80;;;10.80;99.90;;;;;;4995551;28;20205;-63
2022/12/21 00:25:25;;;;;;;0.80;0.80;;;10.90;99.90;;;;;;5010108;28;20654;-63
2022/12/21 00:27:51;;;;;;;0.80;0.80;;;10.90;99.90;;;;;;4998508;28;20289;-65
2022/12/21 00:30:18;;;;;;;0.80;0.80;;;10.90;99.90;;;;;;5003299;28;20656;-65
2022/12/21 00:32:45;;;;;;;0.97;0.97;;;10.90;99.90;;;;;;4999840;28;20209;-65
2022/12/21 00:35:12;;;;;;;0.90;0.90;;;10.90;99.90;;;;;;5004926;28;20206;-63
2022/12/21 00:37:39;;;;;;;1.30;1.00;;;10.90;99.90;;;;;;5011544;28;20206;-66
2022/12/21 00:40:07;;;;;;;0.97;0.93;;;10.90;99.90;;;;;;5006614;28;20678;-66
2022/12/21 00:42:35;;;;;;;1.10;0.80;;;11.00;99.90;;;;;;5013802;28;20211;-63
2022/12/21 00:45:02;;;;;;;1.17;1.17;;;11.00;99.90;;;;;;5019489;28;20209;-65
2022/12/21 00:47:28;;;;;;;1.00;1.00;;;11.00;99.90;;;;;;5014617;28;20244;-64
2022/12/21 00:49:55;;;;;;;0.90;0.90;;;11.00;99.90;;;;;;5008216;28;20253;-65
2022/12/21 00:52:22;;;;;;;0.70;0.70;;;11.00;99.90;;;;;;5009789;28;20301;-64
2022/12/21 00:54:49;;;;;;;0.63;0.63;;;11.00;99.90;;;;;;5006463;28;20230;-64
2022/12/21 00:57:15;;;;;;;0.80;0.80;;;11.10;99.90;;;;;;5005890;28;20206;-64
2022/12/21 00:59:44;;;;;;;0.73;0.73;;;11.20;99.90;;;;;;5003493;28;20236;-65
2022/12/21 01:02:10;;;;;;;0.87;0.87;;;11.10;99.90;;;;;;5003037;28;20201;-65
2022/12/21 01:04:37;;;;;;;0.90;0.90;;;11.20;99.90;;;;;;4999952;28;20655;-64
2022/12/21 01:07:04;;;;;;;0.80;0.80;;;11.30;99.90;;;;;;5002597;28;20297;-64
2022/12/21 01:09:31;;;;;;;1.00;1.00;;;11.30;99.90;;;;;;5004191;28;20647;-65
2022/12/21 01:11:58;;;;;;;0.70;0.70;;;11.30;99.90;;;;;;4999373;28;20687;-64
2022/12/21 01:14:25;;;;;;;0.90;0.80;;;11.30;99.90;;;;;;4998579;28;20276;-65
2022/12/21 01:16:53;;;;;;;0.80;0.80;;;11.40;99.90;;;;;;4996064;28;20236;-65
2022/12/21 01:19:20;;;;;;;0.77;0.77;;;11.40;99.90;;;;;;4998066;28;20853;-65
2022/12/21 01:21:47;;;;;;;1.20;1.10;;;11.30;99.90;;;;;;4999483;28;20309;-65
2022/12/21 01:24:14;;;;;;;0.80;0.80;;;11.40;99.90;;;;;;4999569;28;20202;-65
2022/12/21 01:26:41;;;;;;;0.70;0.70;;;11.40;99.90;;;;;;5001597;28;20610;-65
2022/12/21 01:29:09;;;;;;;1.00;1.00;;;11.40;99.90;;;;;;5001369;28;20236;-64
2022/12/21 01:31:36;;;;;;;0.83;0.67;;;11.40;99.90;;;;;;5001450;28;20245;-64
2022/12/21 01:34:04;;;;;;;0.80;0.80;;;11.40;99.90;;;;;;5002439;28;20217;-65
2022/12/21 01:36:31;;;;;;;0.70;0.70;;;11.40;99.90;;;;;;4998145;28;20211;-65
2022/12/21 01:38:58;;;;;;;0.80;0.80;;;11.50;99.90;;;;;;5008453;28;20308;-65
2022/12/21 01:41:27;;;;;;;1.10;1.00;;;11.50;99.90;;;;;;5005417;28;20734;-65
2022/12/21 01:43:56;;;;;;;0.80;0.80;;;11.50;99.90;;;;;;5000231;28;20209;-66
2022/12/21 01:46:29;;;;;;;0.80;0.80;;;11.60;99.90;;;;;;5000872;28;20206;-65
2022/12/21 01:49:08;;;;;;;0.80;0.80;;;11.60;99.90;;;;;;5001076;28;20222;-65
2022/12/21 01:51:37;;;;;;;0.80;0.80;;;11.60;99.90;;;;;;4996841;28;20603;-64
2022/12/21 01:54:08;;;;;;;0.67;0.67;;;11.60;99.90;;;;;;4999676;28;20210;-64
2022/12/21 01:56:37;;;;;;;0.70;0.70;;;11.60;99.90;;;;;;5004219;28;20299;-64
2022/12/21 01:59:09;;;;;;;0.83;0.83;;;11.50;99.90;;;;;;5000522;28;20702;-64
2022/12/21 02:01:37;;;;;;;0.80;0.80;;;11.50;99.90;;;;;;5012524;28;20646;-64
2022/12/21 02:04:07;;;;;;;0.90;0.90;;;11.50;99.90;;;;;;5014243;28;20243;-64
2022/12/21 02:06:39;;;;;;;0.83;0.83;;;11.50;99.90;;;;;;5014585;28;20228;-64
2022/12/21 02:09:07;;;;;;;0.80;0.80;;;11.50;99.90;;;;;;5012321;28;20697;-65
2022/12/21 02:11:34;;;;;;;0.80;0.80;;;11.40;99.90;;;;;;5019943;28;20221;-64
2022/12/21 02:14:00;;;;;;;0.77;0.77;;;11.40;99.90;;;;;;5013595;28;20197;-64
2022/12/21 02:16:31;;;;;;;0.93;0.93;;;11.40;99.90;;;;;;5016369;28;20205;-65
2022/12/21 02:19:42;;;;;;;0.70;0.70;;;11.50;99.90;;;;;;5010691;28;20911;-64
2022/12/21 02:22:19;;;;;;;0.80;0.80;;;11.50;99.90;;;;;;5012095;28;20209;-65
2022/12/21 02:25:30;;;;;;;0.77;0.77;;;11.40;99.90;;;;;;5014375;28;20698;-64
2022/12/21 02:28:30;;;;;;;0.57;0.57;;;11.40;99.90;;;;;;5010821;28;20300;-64
2022/12/21 02:31:06;;;;;;;0.80;0.80;;;11.50;99.90;;;;;;5007733;28;20217;-65
2022/12/21 02:33:58;;;;;;;0.60;0.60;;;11.50;99.90;;;;;;5003713;28;20204;-65
2022/12/21 02:36:34;;;;;;;0.80;0.80;;;11.50;99.90;;;;;;5011920;28;20292;-64
2022/12/21 02:39:10;;;;;;;0.67;0.67;;;11.50;99.90;;;;;;5011872;28;20224;-65
2022/12/21 02:41:49;;;;;;;1.00;0.83;;;11.50;99.90;;;;;;5015902;28;20211;-64
2022/12/21 02:44:24;;;;;;;0.60;0.60;;;11.50;99.90;;;;;;5014245;28;20221;-65
2022/12/21 02:47:00;;;;;;;0.70;0.70;;;11.50;99.90;;;;;;5010860;28;20208;-65
2022/12/21 02:49:31;;;;;;;0.60;0.60;;;11.60;99.90;;;;;;5011078;28;20248;-66
2022/12/21 02:52:04;;;;;;;0.77;0.77;;;11.60;99.90;;;;;;5011278;28;20315;-64
2022/12/21 02:54:30;;;;;;;0.60;0.60;;;11.60;99.90;;;;;;5008130;28;20282;-64
2022/12/21 02:56:57;;;;;;;0.50;0.50;;;11.60;99.90;;;;;;5011355;28;20197;-64
2022/12/21 02:59:28;;;;;;;0.67;0.67;;;11.60;99.90;;;;;;5011097;28;20216;-64
2022/12/21 03:02:35;;;;;;;0.63;0.63;;;11.60;99.90;;;;;;5010799;28;20194;-64
2022/12/21 03:05:38;;;;;;;0.70;0.70;;;11.70;99.90;;;;;;4950321;29;20203;-65
2022/12/21 03:08:15;;;;;;;0.70;0.70;;;11.60;99.90;;;;;;5008902;28;20499;-64
2022/12/21 03:10:57;;;;;;;0.70;0.70;;;11.60;99.90;;;;;;5015702;28;20576;-65
2022/12/21 03:13:34;;;;;;;0.50;0.50;;;11.60;99.90;;;;;;5014078;28;20754;-64
2022/12/21 03:16:08;;;;;;;0.50;0.50;;;11.60;99.90;;;;;;5015204;28;20270;-64
2022/12/21 03:18:48;;;;;;;0.50;0.50;;;11.60;99.90;;;;;;5008214;28;20733;-66
2022/12/21 03:21:21;;;;;;;0.50;0.50;;;11.60;99.90;;;;;;5013133;28;20201;-63
2022/12/21 03:23:53;;;;;;;0.50;0.50;;;11.60;99.90;;;;;;5014576;28;20198;-65
2022/12/21 03:26:24;;;;;;;0.73;0.73;;;11.50;99.90;;;;;;5015189;28;20205;-65
2022/12/21 03:28:53;;;;;;;0.60;0.60;;;11.50;99.90;;;;;;5014626;28;20588;-65
2022/12/21 03:31:25;;;;;;;0.70;0.70;;;11.50;99.90;;;;;;5008880;28;20217;-67
2022/12/21 03:33:58;;;;;;;0.50;0.50;;;11.50;99.90;;;;;;5014785;28;20214;-65
2022/12/21 03:36:30;;;;;;;0.80;0.80;;;11.60;99.90;;;;;;5015126;28;20208;-64
2022/12/21 03:39:01;;;;;;;0.73;0.73;;;11.60;99.90;;;;;;5015223;28;20221;-64
2022/12/21 03:41:32;;;;;;;0.60;0.60;;;11.60;99.90;;;;;;5016149;28;20197;-67
2022/12/21 03:44:02;;;;;;;0.80;0.80;;;11.60;99.90;;;;;;5015719;28;20201;-64
2022/12/21 03:46:33;;;;;;;0.80;0.80;;;11.60;99.90;;;;;;5014900;28;20201;-65
2022/12/21 03:49:05;;;;;;;0.70;0.70;;;11.60;99.90;;;;;;5016451;28;20245;-65
2022/12/21 03:51:36;;;;;;;0.63;0.63;;;11.60;99.90;;;;;;5011627;28;20225;-66
2022/12/21 03:54:11;;;;;;;0.80;0.80;;;11.60;99.90;;;;;;5013525;28;20407;-65
2022/12/21 03:56:40;;;;;;;0.80;0.80;;;11.60;99.90;;;;;;5014303;28;20626;-65
2022/12/21 03:59:09;;;;;;;0.70;0.70;;;11.60;99.90;;;;;;5013891;28;20222;-65
2022/12/21 04:01:43;;;;;;;0.80;0.80;;;11.60;99.90;;;;;;5014260;28;20204;-64
2022/12/21 04:04:18;;;;;;;0.90;0.90;;;11.60;99.90;;;;;;5012067;28;20211;-64
2022/12/21 04:06:48;;;;;;;0.80;0.80;;;11.60;99.90;;;;;;5012861;28;20720;-64
2022/12/21 04:09:14;;;;;;;0.60;0.60;;;11.60;99.90;;;;;;5013752;28;20733;-63
2022/12/21 04:14:27;;;;;;;0.90;0.90;;;11.70;99.90;;;;;;5013512;28;20256;-63
2022/12/21 04:16:54;;;;;;;0.73;0.73;;;11.70;99.90;;;;;;5014092;28;20216;-63
2022/12/21 04:22:06;;;;;;;0.80;0.80;;;11.70;99.90;;;;;;5011980;28;20681;-66
2022/12/21 04:29:58;;;;;;;0.90;0.90;;;11.70;99.90;;;;;;4981770;28;20600;-67
2022/12/21 04:32:25;;;;;;;0.60;0.60;;;11.80;99.90;;;;;;5017994;28;20316;-64
2022/12/21 04:34:53;;;;;;;0.60;0.60;;;11.80;99.90;;;;;;5020962;28;20228;-65
2022/12/21 04:37:31;;;;;;;0.60;0.60;;;11.80;99.90;;;;;;5013617;28;20288;-64
2022/12/21 04:39:58;;;;;;;0.60;0.60;;;11.80;99.90;;;;;;5013878;28;20299;-64
2022/12/21 04:42:24;;;;;;;0.60;0.60;;;11.70;99.90;;;;;;5013094;28;20208;-64
2022/12/21 04:44:51;;;;;;;0.63;0.63;;;11.70;99.90;;;;;;5012863;28;20201;-65
2022/12/21 04:47:18;;;;;;;0.60;0.60;;;11.70;99.90;;;;;;5018438;28;20276;-65
2022/12/21 04:49:45;;;;;;;0.73;0.73;;;11.70;99.90;;;;;;5023592;28;20309;-66
2022/12/21 04:52:13;;;;;;;0.90;0.90;;;11.80;99.90;;;;;;5013168;28;20577;-64
2022/12/21 04:54:40;;;;;;;0.77;0.77;;;11.70;99.90;;;;;;5012022;28;20205;-65
2022/12/21 04:57:07;;;;;;;0.80;0.80;;;11.70;99.90;;;;;;5010262;28;20232;-66
2022/12/21 04:59:34;;;;;;;0.70;0.70;;;11.70;99.90;;;;;;5012843;28;20231;-65
2022/12/21 05:02:01;;;;;;;0.43;0.43;;;11.70;99.90;;;;;;5012969;28;20609;-65
2022/12/21 05:04:28;;;;;;;0.57;0.57;;;11.70;99.90;;;;;;5003922;28;20205;-64
2022/12/21 05:06:55;;;;;;;0.70;0.70;;;11.70;99.90;;;;;;5013108;28;20296;-66
2022/12/21 05:09:25;;;;;;;0.63;0.63;;;11.80;99.90;;;;;;5012768;28;20367;-65
2022/12/21 05:11:52;;;;;;;0.57;0.57;;;11.80;99.90;;;;;;5012173;28;20212;-65
2022/12/21 05:14:19;;;;;;;0.70;0.70;;;11.70;99.90;;;;;;5012056;28;20213;-66
2022/12/21 05:16:46;;;;;;;1.07;0.70;;;11.80;99.90;;;;;;5012494;28;20219;-65
2022/12/21 05:19:13;;;;;;;0.70;0.70;;;11.80;99.90;;;;;;5012471;28;20778;-65
2022/12/21 05:21:40;;;;;;;1.00;1.00;;;11.80;99.90;;;;;;5012463;28;20208;-66
2022/12/21 05:24:07;;;;;;;0.70;0.70;;;11.80;99.90;;;;;;5011252;28;20205;-65
2022/12/21 05:26:36;;;;;;;0.80;0.80;;;11.80;99.90;;;;;;5012571;28;20215;-64
2022/12/21 05:29:03;;;;;;;0.73;0.73;;;11.70;99.90;;;;;;5012327;28;20225;-66
2022/12/21 05:31:29;;;;;;;0.50;0.50;;;11.70;99.90;;;;;;5001598;28;20235;-63
2022/12/21 05:33:56;;;;;;;0.57;0.57;;;11.60;99.90;;;;;;5010188;28;20205;-63
2022/12/21 05:36:24;;;;;;;0.60;0.60;;;11.60;99.90;;;;;;5011618;28;20646;-64
2022/12/21 05:38:51;;;;;;;0.70;0.70;;;11.70;99.90;;;;;;5009643;28;20721;-65
2022/12/21 05:41:18;;;;;;;0.73;0.73;;;11.70;99.90;;;;;;5012763;28;20212;-64
2022/12/21 05:43:46;;;;;;;0.80;0.80;;;11.70;99.90;;;;;;5011391;28;20248;-64
2022/12/21 05:46:14;;;;;;;0.70;0.70;;;11.70;99.90;;;;;;5011867;28;20292;-65
2022/12/21 05:48:40;;;;;;;0.60;0.60;;;11.70;99.90;;;;;;5012005;28;20217;-64
2022/12/21 05:51:09;;;;;;;0.60;0.60;;;11.70;99.90;;;;;;5012219;28;20240;-64
2022/12/21 05:53:37;;;;;;;0.60;0.60;;;11.70;99.90;;;;;;5001401;28;20221;-64
2022/12/21 05:56:04;;;;;;;0.60;0.60;;;11.70;99.90;;;;;;5011600;28;20213;-64
2022/12/21 05:58:31;;;;;;;0.77;0.70;;;11.70;99.90;;;;;;5011149;28;20295;-63
2022/12/21 06:01:01;;;;;;;0.57;0.57;;;11.70;99.90;;;;;;5012763;28;20205;-64
2022/12/21 06:03:28;;;;;;;0.50;0.50;;;11.80;99.90;;;;;;5007835;28;20339;-63
2022/12/21 06:06:01;;;;;;;0.50;0.50;;;11.70;99.90;;;;;;5012520;28;20202;-64
2022/12/21 06:08:30;;;;;;;0.80;0.80;;;11.70;99.90;;;;;;5011676;28;20229;-64
2022/12/21 06:10:57;;;;;;;0.70;0.70;;;11.70;99.90;;;;;;5011251;28;20201;-64
2022/12/21 06:13:24;;;;;;;0.70;0.70;;;11.70;99.90;;;;;;5009841;28;20213;-64
2022/12/21 06:15:50;;;;;;;0.80;0.80;;;11.80;99.90;;;;;;5008830;28;20197;-63
2022/12/21 06:18:19;;;;;;;0.70;0.70;;;11.80;99.90;;;;;;5009935;28;20284;-63
2022/12/21 06:20:51;;;;;;;0.70;0.70;;;11.80;99.90;;;;;;5011361;28;20287;-64
2022/12/21 06:23:19;;;;;;;1.00;0.90;;;11.90;99.90;;;;;;5009612;28;20634;-64
2022/12/21 06:25:46;;;;;;;0.77;0.77;;;11.90;99.90;;;;;;5014215;28;20259;-64
2022/12/21 06:28:13;;;;;;;0.90;0.90;;;11.90;99.90;;;;;;5016368;28;20259;-65
2022/12/21 06:30:39;;;;;;;0.73;0.73;;;11.90;99.90;;;;;;5017054;28;20284;-64
2022/12/21 06:33:06;;;;;;;0.80;0.80;;;12.00;99.90;;;;;;5009527;28;20594;-64
2022/12/21 06:35:34;;;;;;;0.70;0.70;;;12.00;99.90;;;;;;5011423;28;20211;-64
2022/12/21 06:38:01;;;;;;;0.70;0.70;;;12.00;99.90;;;;;;5011289;28;20232;-64
2022/12/21 06:40:28;;;;;;;0.70;0.70;;;12.00;99.90;;;;;;5011871;28;20551;-63
2022/12/21 06:42:55;;;;;;;0.80;0.80;;;12.00;99.90;;;;;;5018906;28;20201;-64
2022/12/21 06:45:22;;;;;;;0.80;0.80;;;12.00;99.90;;;;;;5011692;28;20209;-64
2022/12/21 06:47:53;;;;;;;1.07;0.80;;;12.00;99.90;;;;;;5011500;28;20205;-63
2022/12/21 06:50:20;;;;;;;0.80;0.80;;;12.00;99.90;;;;;;5012727;28;20233;-64
2022/12/21 06:52:49;;;;;;;0.57;0.57;;;12.10;99.90;;;;;;5012238;28;20367;-63
2022/12/21 06:55:16;;;;;;;0.83;0.83;;;12.10;99.90;;;;;;5018505;28;20696;-64
2022/12/21 06:57:44;;;;;;;0.80;0.80;;;12.10;99.90;;;;;;5011828;28;20205;-64
2022/12/21 07:00:13;;;;;;;0.70;0.70;;;12.10;99.90;;;;;;5011758;28;20785;-64
2022/12/21 07:02:41;;;;;;;0.60;0.60;;;12.10;99.90;;;;;;5011595;28;20204;-64
2022/12/21 07:05:08;;;;;;;0.80;0.80;;;12.10;99.90;;;;;;5011373;28;20208;-63
2022/12/21 07:07:35;;;;;;;0.60;0.60;;;12.10;99.90;;;;;;5014556;28;20209;-64
2022/12/21 07:10:04;;;;;;;0.70;0.70;;;12.10;99.90;;;;;;5007590;28;20221;-63
2022/12/21 07:12:31;;;;;;;0.73;0.73;;;12.10;99.90;;;;;;5009154;28;20722;-63
2022/12/21 07:14:57;;;;;;;0.97;0.83;;;12.10;99.90;;;;;;5009105;28;20239;-65
2022/12/21 07:17:24;;;;;;;0.60;0.60;;;12.10;99.90;;;;;;5009915;28;20213;-62
2022/12/21 07:19:51;;;;;;;0.60;0.60;;;12.10;99.90;;;;;;5011543;28;20335;-63
2022/12/21 07:22:18;;;;;;;0.60;0.60;;;12.00;99.90;;;;;;5014081;28;20205;-64
2022/12/21 07:24:45;;;;;;;0.83;0.83;;;12.00;99.90;;;;;;5016030;28;20201;-63
2022/12/21 07:27:13;;;;;;;0.80;0.80;;;12.00;99.90;;;;;;5009482;28;20212;-64
2022/12/21 07:29:40;;;;;;;0.80;0.80;;;12.00;99.90;;;;;;5011695;28;20516;-65
2022/12/21 07:32:06;;;;;;;0.80;0.80;;;12.00;99.90;;;;;;5012148;28;20698;-63
2022/12/21 07:34:34;;;;;;;0.90;0.90;;;12.00;99.90;;;;;;5012014;28;20197;-64
2022/12/21 07:37:01;;;;;;;0.73;0.73;;;12.00;99.90;;;;;;5012610;28;20201;-63
2022/12/21 07:39:27;;;;;;;0.60;0.60;;;12.00;99.90;;;;;;5003483;28;20217;-64
2022/12/21 07:41:54;;;;;;;0.90;0.90;;;12.00;99.90;;;;;;5011993;28;20212;-63
2022/12/21 07:44:22;;;;;;;0.63;0.63;;;12.00;99.90;;;;;;5011140;28;20202;-63
2022/12/21 07:46:49;;;;;;;0.77;0.77;;;12.00;99.90;;;;;;5012034;28;20300;-64
2022/12/21 07:49:16;;;;;;;0.67;0.67;;;12.00;99.90;;;;;;5010778;28;20225;-65
2022/12/21 07:51:43;;;;;;;0.80;0.80;;;12.00;99.90;;;;;;5011274;28;20205;-63
2022/12/21 07:54:10;;;;;;;0.60;0.60;;;12.00;99.90;;;;;;5011954;28;20229;-65
2022/12/21 07:56:36;;;;;;;0.70;0.70;;;12.00;99.90;;;;;;5015786;28;20201;-64
2022/12/21 07:59:03;;;;;;;0.60;0.60;;;12.00;99.90;;;;;;5015152;28;20225;-64
2022/12/21 08:01:31;;;;;;;0.80;0.80;;;12.00;99.90;;;;;;5012947;28;20617;-64
2022/12/21 08:03:59;;;;;;;1.40;1.00;;;12.00;99.90;;;;;;5014709;28;20209;-64
2022/12/21 08:06:26;;;;;;;0.80;0.80;;;12.00;99.90;;;;;;5015482;28;20201;-64
2022/12/21 08:08:53;;;;;;;0.80;0.80;;;12.00;99.90;;;;;;5015384;28;20227;-64
2022/12/21 08:11:20;;;;;;;0.80;0.80;;;12.00;99.90;;;;;;5015401;28;20210;-64
2022/12/21 08:13:48;;;;;;;0.57;0.57;;;12.00;99.90;;;;;;5015087;28;20324;-65
2022/12/21 08:16:17;;;;;;;0.77;0.77;;;12.00;99.90;;;;;;5014176;28;20219;-65
2022/12/21 08:18:45;;;;;;;0.70;0.70;;;12.00;99.90;;;;;;5013377;28;20227;-63
2022/12/21 08:21:12;;;;;;;0.80;0.80;;;12.00;99.90;;;;;;5013738;28;20209;-63
2022/12/21 08:23:39;;;;;;;0.80;0.80;;;12.00;99.90;;;;;;5013413;28;20200;-64
2022/12/21 08:26:08;;;;;;;0.80;0.80;;;11.90;99.90;;;;;;5014526;28;20320;-64
2022/12/21 08:28:35;;;;;;;0.90;0.83;;;11.80;99.90;;;;;;5013976;28;20217;-63
2022/12/21 08:31:03;;;;;;;0.80;0.80;;;11.90;99.90;;;;;;5014305;28;20213;-65
2022/12/21 08:33:30;;;;;;;0.50;0.50;;;11.90;99.90;;;;;;5006612;28;20227;-64
2022/12/21 08:35:58;;;;;;;0.80;0.80;;;11.90;99.90;;;;;;5014050;28;20205;-64
2022/12/21 08:38:25;;;;;;;0.63;0.63;;;11.90;99.90;;;;;;5014090;28;20205;-65
2022/12/21 08:40:52;;;;;;;0.90;0.90;;;11.90;99.90;;;;;;5014189;28;20202;-65
2022/12/21 08:43:20;;;;;;;0.83;0.83;;;11.90;99.90;;;;;;5012895;28;20292;-64
2022/12/21 08:45:47;;;;;;;0.90;0.90;;;11.90;99.90;;;;;;5013853;28;20573;-64
2022/12/21 08:48:14;;;;;;;0.90;0.90;;;11.90;99.90;;;;;;5013785;28;20298;-64
2022/12/21 08:50:41;;;;;;;0.80;0.80;;;11.90;99.90;;;;;;5014121;28;20295;-65
2022/12/21 08:53:09;;;;;;;0.90;0.90;;;11.90;99.90;;;;;;5014144;28;20225;-63
2022/12/21 08:55:36;;;;;;;0.60;0.60;;;11.90;99.90;;;;;;5018902;28;20630;-64
2022/12/21 08:58:03;;;;;;;0.70;0.70;;;12.00;99.90;;;;;;5022503;28;20213;-65
2022/12/21 09:00:29;;;;;;;1.10;1.00;;;12.00;99.90;;;;;;5019849;28;20589;-63
2022/12/21 09:02:56;;;;;;;0.60;0.60;;;12.00;99.90;;;;;;5013612;28;20284;-64
2022/12/21 09:05:23;;;;;;;0.73;0.73;;;12.00;99.90;;;;;;5013010;28;20241;-65
2022/12/21 09:07:50;;;;;;;0.90;0.90;;;12.00;99.90;;;;;;5013108;28;20680;-65
2022/12/21 09:10:18;;;;;;;0.60;0.60;;;12.00;99.90;;;;;;5013107;28;20225;-64
2022/12/21 09:12:45;;;;;;;0.80;0.80;;;12.10;99.90;;;;;;5012363;28;20225;-65
2022/12/21 09:15:12;;;;;;;0.70;0.70;;;12.10;99.90;;;;;;5013654;28;20219;-64
2022/12/21 09:17:39;;;;;;;0.70;0.70;;;12.20;99.90;;;;;;5014690;28;20209;-64
2022/12/21 09:20:07;;;;;;;0.70;0.70;;;12.30;99.90;;;;;;5013957;28;20264;-63
2022/12/21 09:22:34;;;;;;;0.50;0.50;;;12.30;99.90;;;;;;5013532;28;20202;-63
2022/12/21 09:25:01;;;;;;;0.90;0.90;;;12.30;99.90;;;;;;5013798;28;20223;-64
2022/12/21 09:27:29;;;;;;;0.70;0.70;;;12.30;99.90;;;;;;5012021;28;20248;-64
2022/12/21 09:29:56;;;;;;;0.77;0.77;;;12.30;99.90;;;;;;5014081;28;20225;-65
2022/12/21 09:32:23;;;;;;;0.60;0.60;;;12.40;99.90;;;;;;5012846;28;20312;-63
2022/12/21 09:34:50;;;;;;;1.00;1.00;;;12.40;99.90;;;;;;5013416;28;20217;-66
2022/12/21 09:37:17;;;;;;;0.90;0.90;;;12.50;99.90;;;;;;5013120;28;20296;-64
2022/12/21 09:39:44;;;;;;;0.80;0.80;;;12.50;99.90;;;;;;5013395;28;20225;-63
2022/12/21 09:42:34;;;;;;;0.70;0.70;;;12.40;99.90;;;;;;5013418;28;20205;-63
2022/12/21 09:45:21;;;;;;;0.80;0.80;;;12.40;99.90;;;;;;5009635;28;20605;-64
2022/12/21 09:47:53;;;;;;;1.10;1.10;;;12.40;99.90;;;;;;5010731;28;20205;-64
2022/12/21 09:50:24;;;;;;;0.90;0.70;;;12.50;99.90;;;;;;5015715;28;20248;-64
2022/12/21 09:52:58;;;;;;;0.60;0.60;;;12.50;99.90;;;;;;5017084;28;20225;-65
2022/12/21 09:55:27;;;;;;;0.70;0.70;;;12.50;99.90;;;;;;5016894;28;20296;-63
2022/12/21 09:57:58;;;;;;;0.80;0.80;;;12.50;99.90;;;;;;5018178;28;20236;-64
2022/12/21 10:00:26;;;;;;;0.63;0.63;;;12.50;99.90;;;;;;5017370;28;20243;-66
2022/12/21 10:03:22;;;;;;;0.50;0.50;;;12.50;99.90;;;;;;5014558;28;20201;-65
2022/12/21 10:06:07;;;;;;;0.50;0.50;;;12.60;99.90;;;;;;5007783;28;20241;-64
2022/12/21 10:08:49;;;;;;;0.60;0.60;;;12.60;99.90;;;;;;5013527;28;20261;-64
2022/12/21 10:11:23;;;;;;;0.50;0.50;;;12.60;99.90;;;;;;5017747;28;20425;-64
2022/12/21 10:14:01;;;;;;;0.60;0.60;;;12.60;99.90;;;;;;5017711;28;20209;-63
2022/12/21 10:16:35;;;;;;;0.80;0.80;;;12.60;99.90;;;;;;5009751;28;20758;-63
2022/12/21 10:19:08;;;;;;;0.50;0.50;;;12.70;99.90;;;;;;5016680;28;20226;-65
2022/12/21 10:21:47;;;;;;;0.60;0.60;;;12.70;99.90;;;;;;5008347;28;20282;-63
2022/12/21 10:24:22;;;;;;;0.60;0.60;;;12.80;99.90;;;;;;5011633;28;20205;-64
2022/12/21 10:26:52;;;;;;;0.60;0.60;;;12.80;99.90;;;;;;5014804;28;20203;-64
2022/12/21 10:29:31;;;;;;;0.60;0.60;;;12.80;99.90;;;;;;5014723;28;20727;-64
2022/12/21 10:31:59;;;;;;;0.77;0.63;;;13.00;99.90;;;;;;5013035;28;20203;-64
2022/12/21 10:34:31;;;;;;;0.57;0.57;;;13.10;99.90;;;;;;5011557;28;20229;-63
2022/12/21 10:37:02;;;;;;;0.50;0.50;;;13.20;99.90;;;;;;5011055;28;20197;-64
2022/12/21 10:39:30;;;;;;;0.50;0.50;;;13.50;99.90;;;;;;5009982;28;20599;-64
2022/12/21 10:42:05;;;;;;;0.80;0.80;;;13.70;99.90;;;;;;5013069;28;20197;-65
2022/12/21 10:44:41;;;;;;;0.90;0.90;;;13.90;99.90;;;;;;5008219;28;20197;-64
2022/12/21 10:47:13;;;;;;;0.60;0.60;;;14.00;99.90;;;;;;5011863;28;20208;-65
2022/12/21 10:49:42;;;;;;;0.93;0.70;;;14.10;99.90;;;;;;5011334;28;20221;-64
2022/12/21 10:52:33;;;;;;;0.50;0.50;;;14.20;99.90;;;;;;5011793;28;20296;-64
2022/12/21 10:55:00;;;;;;;0.93;0.60;;;14.30;99.90;;;;;;5008357;28;20312;-69
2022/12/21 10:57:32;;;;;;;0.53;0.53;;;14.50;99.90;;;;;;5011556;28;20216;-64
2022/12/21 11:00:04;;;;;;;0.57;0.57;;;14.60;99.90;;;;;;5014433;28;20225;-65
2022/12/21 11:02:35;;;;;;;0.60;0.60;;;14.70;99.90;;;;;;5010094;28;20658;-64
2022/12/21 11:05:02;;;;;;;0.30;0.30;;;14.70;99.90;;;;;;5013270;28;20260;-65
2022/12/21 11:07:30;;;;;;;0.57;0.57;;;14.60;99.90;;;;;;5014811;28;20197;-65
2022/12/21 11:09:59;;;;;;;0.47;0.47;;;14.60;99.90;;;;;;5012334;28;20773;-65
2022/12/21 11:12:27;;;;;;;0.40;0.40;;;14.50;99.90;;;;;;5011268;28;20209;-63
2022/12/21 11:14:56;;;;;;;0.30;0.30;;;14.60;99.90;;;;;;5011976;28;20228;-65
2022/12/21 11:17:26;;;;;;;0.70;0.50;;;14.60;99.90;;;;;;5011319;28;21164;-64
2022/12/21 11:20:00;;;;;;;0.60;0.57;;;14.50;99.90;;;;;;5011479;28;20221;-65
2022/12/21 11:22:29;;;;;;;2.00;0.43;;;14.50;99.90;;;;;;5011028;28;20201;-64
2022/12/21 11:24:59;;;;;;;0.40;0.40;;;14.60;99.90;;;;;;5010126;28;20209;-64
2022/12/21 11:27:28;;;;;;;0.40;0.40;;;14.70;99.90;;;;;;5010497;28;20201;-64
2022/12/21 11:29:58;;;;;;;0.50;0.50;;;14.80;99.90;;;;;;5013530;28;20221;-65
2022/12/21 11:32:29;;;;;;;0.40;0.40;;;14.80;99.90;;;;;;5015701;28;20292;-63
2022/12/21 11:34:57;;;;;;;0.60;0.60;;;14.90;99.90;;;;;;5015773;28;20499;-63
2022/12/21 11:37:27;;;;;;;0.50;0.50;;;14.80;99.90;;;;;;5018211;28;20296;-65
2022/12/21 11:39:57;;;;;;;0.40;0.40;;;14.80;99.90;;;;;;5015911;28;20225;-65
2022/12/21 11:42:26;;;;;;;0.43;0.43;;;14.80;99.90;;;;;;5014216;28;20236;-63
2022/12/21 11:45:05;;;;;;;0.63;0.60;;;14.70;99.90;;;;;;5014683;28;20194;-64
2022/12/21 11:47:45;;;;;;;0.70;0.70;;;14.60;99.90;;;;;;5014320;28;20205;-65
2022/12/21 11:50:37;;;;;;;0.50;0.50;;;14.50;99.90;;;;;;5014145;28;20225;-64
2022/12/21 11:53:22;;;;;;;0.60;0.60;;;14.50;99.90;;;;;;5010256;28;20216;-64
2022/12/21 11:56:11;;;;;;;0.60;0.60;;;14.50;99.90;;;;;;5013948;28;20691;-64
2022/12/21 11:59:00;;;;;;;0.60;0.60;;;14.50;99.90;;;;;;5012999;28;20232;-63
2022/12/21 12:01:42;;;;;;;0.80;0.80;;;14.40;99.90;;;;;;5015463;28;20212;-65
2022/12/21 12:04:37;;;;;;;0.63;0.63;;;14.40;99.90;;;;;;5014021;28;20292;-64
2022/12/21 12:07:35;;;;;;;0.80;0.80;;;14.50;99.90;;;;;;5016004;28;20202;-64
2022/12/21 12:10:25;;;;;;;1.03;0.60;;;14.60;99.90;;;;;;5016148;28;20229;-63
2022/12/21 12:13:03;;;;;;;0.60;0.60;;;14.50;99.90;;;;;;5007220;28;20206;-64
2022/12/21 12:15:41;;;;;;;0.43;0.43;;;14.50;99.90;;;;;;5014963;28;20209;-64
2022/12/21 12:18:23;;;;;;;0.77;0.77;;;14.40;99.90;;;;;;5014424;28;20303;-64
2022/12/21 12:21:13;;;;;;;0.80;0.80;;;14.40;99.90;;;;;;5019190;28;20201;-64
2022/12/21 12:23:49;;;;;;;0.50;0.50;;;14.40;99.90;;;;;;5013445;28;20543;-64
2022/12/21 12:26:21;;;;;;;0.50;0.50;;;14.30;99.90;;;;;;5014680;28;20211;-63
2022/12/21 12:29:16;;;;;;;0.70;0.70;;;14.30;99.90;;;;;;5015349;28;20619;-64
2022/12/21 12:31:58;;;;;;;0.70;0.70;;;14.30;99.90;;;;;;5008433;28;20207;-64
2022/12/21 12:34:51;;;;;;;0.80;0.80;;;14.30;99.90;;;;;;5013479;28;20221;-65
2022/12/21 12:37:29;;;;;;;0.70;0.70;;;14.20;99.90;;;;;;5023605;28;20255;-66
2022/12/21 12:40:04;;;;;;;0.60;0.60;;;14.20;99.90;;;;;;5026872;28;20315;-65
2022/12/21 12:42:37;;;;;;;0.77;0.77;;;14.30;99.90;;;;;;5024496;28;20625;-64
2022/12/21 12:45:19;;;;;;;0.70;0.70;;;14.30;99.90;;;;;;5027681;28;20197;-65
2022/12/21 12:47:57;;;;;;;0.60;0.60;;;14.20;99.90;;;;;;5028737;28;20197;-64
2022/12/21 12:50:33;;;;;;;0.87;0.87;;;14.20;99.90;;;;;;5024158;28;20221;-64
2022/12/21 12:53:15;;;;;;;1.00;1.00;;;14.20;99.90;;;;;;5012761;28;20201;-64
2022/12/21 12:55:54;;;;;;;1.00;1.00;;;14.10;99.90;;;;;;5014376;28;20227;-65
2022/12/21 12:58:27;;;;;;;0.60;0.60;;;14.10;99.90;;;;;;5015912;28;20209;-63
2022/12/21 13:01:01;;;;;;;0.60;0.60;;;14.10;99.90;;;;;;5013169;28;20193;-64
2022/12/21 13:03:44;;;;;;;0.63;0.50;;;14.10;99.90;;;;;;5017307;28;20204;-65
2022/12/21 13:06:22;;;;;;;0.60;0.60;;;14.10;99.90;;;;;;5019664;28;20206;-64
2022/12/21 13:09:00;;;;;;;0.73;0.73;;;14.10;99.90;;;;;;5013763;28;20227;-64
2022/12/21 13:11:35;;;;;;;0.70;0.70;;;14.10;99.90;;;;;;5012280;28;20762;-63
2022/12/21 13:14:08;;;;;;;0.67;0.67;;;14.10;99.90;;;;;;5011637;28;20231;-66
2022/12/21 13:16:43;;;;;;;0.50;0.50;;;14.10;99.90;;;;;;5004707;28;20541;-65
2022/12/21 13:19:15;;;;;;;0.80;0.80;;;14.00;99.90;;;;;;5010789;28;20239;-64